sensor_id;sensor_type;location;lat;lon;timestamp;temperature;humidity
41058;DHT22;66768;48.884;2.258;2023-12-29T00:00:26;11.60;99.90
41058;DHT22;66768;48.884;2.258;2023-12-29T00:02:52;11.60;99.90
41058;DHT22;66768;48.884;2.258;2023-12-29T00:05:19;11.60;99.90
41058;DHT22;66768;48.884;2.258;2023-12-29T00:07:47;11.60;99.90
41058;DHT22;66768;48.884;2.258;2023-12-29T00:10:14;11.70;99.90
41058;DHT22;66768;48.884;2.258;2023-12-29T00:12:41;11.70;99.90
41058;DHT22;66768;48.884;2.258;2023-12-29T00:15:08;11.70;99.90
41058;DHT22;66768;48.884;2.258;2023-12-29T00:17:35;11.70;99.90
41058;DHT22;66768;48.884;2.258;2023-12-29T00:20:06;11.70;99.90
41058;DHT22;66768;48.884;2.258;2023-12-29T00:22:33;11.70;99.90
41058;DHT22;66768;48.884;2.258;2023-12-29T00:25:02;11.70;99.90
41058;DHT22;66768;48.884;2.258;2023-12-29T00:27:29;11.80;99.90
41058;DHT22;66768;48.884;2.258;2023-12-29T00:29:56;11.80;99.90
41058;DHT22;66768;48.884;2.258;2023-12-29T00:32:23;11.80;99.90
41058;DHT22;66768;48.884;2.258;2023-12-29T00:34:50;11.80;99.90
41058;DHT22;66768;48.884;2.258;2023-12-29T00:37:17;11.80;99.90
41058;DHT22;66768;48.884;2.258;2023-12-29T00:39:43;11.80;99.90
41058;DHT22;66768;48.884;2.258;2023-12-29T00:42:11;11.90;99.90
41058;DHT22;66768;48.884;2.258;2023-12-29T00:44:38;11.90;99.90
41058;DHT22;66768;48.884;2.258;2023-12-29T00:47:05;11.90;99.90
41058;DHT22;66768;48.884;2.258;2023-12-29T00:49:32;11.90;99.90
41058;DHT22;66768;48.884;2.258;2023-12-29T00:51:59;11.90;99.90
41058;DHT22;66768;48.884;2.258;2023-12-29T00:54:28;11.80;99.90
41058;DHT22;66768;48.884;2.258;2023-12-29T00:56:55;11.90;99.90
41058;DHT22;66768;48.884;2.258;2023-12-29T00:59:23;11.90;99.90
41058;DHT22;66768;48.884;2.258;2023-12-29T01:01:49;11.90;99.90
41058;DHT22;66768;48.884;2.258;2023-12-29T01:04:16;11.90;99.90
41058;DHT22;66768;48.884;2.258;2023-12-29T01:06:43;11.90;99.90
41058;DHT22;66768;48.884;2.258;2023-12-29T01:09:10;11.90;99.90
41058;DHT22;66768;48.884;2.258;2023-12-29T01:11:37;12.00;99.90
41058;DHT22;66768;48.884;2.258;2023-12-29T01:14:04;11.90;99.90
41058;DHT22;66768;48.884;2.258;2023-12-29T01:16:32;11.90;99.90
41058;DHT22;66768;48.884;2.258;2023-12-29T01:18:59;12.00;99.90
41058;DHT22;66768;48.884;2.258;2023-12-29T01:21:26;11.90;99.90
41058;DHT22;66768;48.884;2.258;2023-12-29T01:23:53;11.90;99.90
41058;DHT22;66768;48.884;2.258;2023-12-29T01:26:19;11.90;99.90
41058;DHT22;66768;48.884;2.258;2023-12-29T01:28:46;11.90;99.90
41058;DHT22;66768;48.884;2.258;2023-12-29T01:31:13;11.90;99.90
41058;DHT22;66768;48.884;2.258;2023-12-29T01:33:41;11.90;99.90
41058;DHT22;66768;48.884;2.258;2023-12-29T01:36:08;11.90;99.90
41058;DHT22;66768;48.884;2.258;2023-12-29T01:38:35;11.90;99.90
41058;DHT22;66768;48.884;2.258;2023-12-29T01:41:02;11.90;99.90
41058;DHT22;66768;48.884;2.258;2023-12-29T01:43:29;11.90;99.90
41058;DHT22;66768;48.884;2.258;2023-12-29T01:45:56;11.90;99.90
41058;DHT22;66768;48.884;2.258;2023-12-29T01:48:23;11.90;99.90
41058;DHT22;66768;48.884;2.258;2023-12-29T01:50:52;11.90;99.90
41058;DHT22;66768;48.884;2.258;2023-12-29T01:53:20;12.00;99.90
41058;DHT22;66768;48.884;2.258;2023-12-29T01:55:47;12.00;99.90
41058;DHT22;66768;48.884;2.258;2023-12-29T01:58:15;12.00;99.90
41058;DHT22;66768;48.884;2.258;2023-12-29T02:00:42;12.00;99.90
41058;DHT22;66768;48.884;2.258;2023-12-29T02:03:10;12.00;99.90
41058;DHT22;66768;48.884;2.258;2023-12-29T02:05:37;12.00;99.90
41058;DHT22;66768;48.884;2.258;2023-12-29T02:08:07;12.00;99.90
41058;DHT22;66768;48.884;2.258;2023-12-29T02:10:35;12.10;99.90
41058;DHT22;66768;48.884;2.258;2023-12-29T02:13:02;12.10;99.90
41058;DHT22;66768;48.884;2.258;2023-12-29T02:15:29;12.00;99.90
41058;DHT22;66768;48.884;2.258;2023-12-29T02:17:59;12.10;99.90
41058;DHT22;66768;48.884;2.258;2023-12-29T02:20:28;12.10;99.90
41058;DHT22;66768;48.884;2.258;2023-12-29T02:22:55;12.10;99.90
41058;DHT22;66768;48.884;2.258;2023-12-29T02:25:23;12.10;99.90
41058;DHT22;66768;48.884;2.258;2023-12-29T02:27:54;12.20;99.90
41058;DHT22;66768;48.884;2.258;2023-12-29T02:30:27;12.10;99.90
41058;DHT22;66768;48.884;2.258;2023-12-29T02:32:59;12.20;99.90
41058;DHT22;66768;48.884;2.258;2023-12-29T02:35:28;12.10;99.90
41058;DHT22;66768;48.884;2.258;2023-12-29T02:37:58;12.20;99.90
41058;DHT22;66768;48.884;2.258;2023-12-29T02:40:27;12.20;99.90
41058;DHT22;66768;48.884;2.258;2023-12-29T02:42:54;12.20;99.90
41058;DHT22;66768;48.884;2.258;2023-12-29T02:45:21;12.20;99.90
41058;DHT22;66768;48.884;2.258;2023-12-29T02:47:48;12.20;99.90
41058;DHT22;66768;48.884;2.258;2023-12-29T02:50:15;12.20;99.90
41058;DHT22;66768;48.884;2.258;2023-12-29T02:52:42;12.20;99.90
41058;DHT22;66768;48.884;2.258;2023-12-29T02:55:09;12.20;99.90
41058;DHT22;66768;48.884;2.258;2023-12-29T02:57:38;12.20;99.90
41058;DHT22;66768;48.884;2.258;2023-12-29T03:00:05;12.20;99.90
41058;DHT22;66768;48.884;2.258;2023-12-29T03:02:33;12.20;99.90
41058;DHT22;66768;48.884;2.258;2023-12-29T03:04:59;12.20;99.90
41058;DHT22;66768;48.884;2.258;2023-12-29T03:07:26;12.20;99.90
41058;DHT22;66768;48.884;2.258;2023-12-29T03:09:53;12.20;99.90
41058;DHT22;66768;48.884;2.258;2023-12-29T03:12:20;12.20;99.90
41058;DHT22;66768;48.884;2.258;2023-12-29T03:14:48;12.20;99.90
41058;DHT22;66768;48.884;2.258;2023-12-29T03:17:15;12.20;99.90
41058;DHT22;66768;48.884;2.258;2023-12-29T03:19:43;12.20;99.90
41058;DHT22;66768;48.884;2.258;2023-12-29T03:22:09;12.20;99.90
41058;DHT22;66768;48.884;2.258;2023-12-29T03:24:37;12.20;99.90
41058;DHT22;66768;48.884;2.258;2023-12-29T03:27:04;12.10;99.90
41058;DHT22;66768;48.884;2.258;2023-12-29T03:29:31;12.20;99.90
41058;DHT22;66768;48.884;2.258;2023-12-29T03:31:59;12.20;99.90
41058;DHT22;66768;48.884;2.258;2023-12-29T03:34:26;12.20;99.90
41058;DHT22;66768;48.884;2.258;2023-12-29T03:36:52;12.20;99.90
41058;DHT22;66768;48.884;2.258;2023-12-29T03:39:19;12.20;99.90
41058;DHT22;66768;48.884;2.258;2023-12-29T03:41:46;12.20;99.90
41058;DHT22;66768;48.884;2.258;2023-12-29T03:44:13;12.20;99.90
41058;DHT22;66768;48.884;2.258;2023-12-29T03:46:40;12.20;99.90
41058;DHT22;66768;48.884;2.258;2023-12-29T03:49:09;12.20;99.90
41058;DHT22;66768;48.884;2.258;2023-12-29T03:51:37;12.20;99.90
41058;DHT22;66768;48.884;2.258;2023-12-29T03:54:04;12.20;99.90
41058;DHT22;66768;48.884;2.258;2023-12-29T03:56:31;12.20;99.90
41058;DHT22;66768;48.884;2.258;2023-12-29T03:58:57;12.20;99.90
41058;DHT22;66768;48.884;2.258;2023-12-29T04:01:25;12.20;99.90
41058;DHT22;66768;48.884;2.258;2023-12-29T04:03:53;12.20;99.90
41058;DHT22;66768;48.884;2.258;2023-12-29T04:06:21;12.20;99.90
41058;DHT22;66768;48.884;2.258;2023-12-29T04:08:48;12.20;99.90
41058;DHT22;66768;48.884;2.258;2023-12-29T04:11:14;12.20;99.90
41058;DHT22;66768;48.884;2.258;2023-12-29T04:13:41;12.20;99.90
41058;DHT22;66768;48.884;2.258;2023-12-29T04:16:08;12.20;99.90
41058;DHT22;66768;48.884;2.258;2023-12-29T04:18:35;12.20;99.90
41058;DHT22;66768;48.884;2.258;2023-12-29T04:21:02;12.20;99.90
41058;DHT22;66768;48.884;2.258;2023-12-29T04:23:30;12.20;99.90
41058;DHT22;66768;48.884;2.258;2023-12-29T04:25:57;12.20;99.90
41058;DHT22;66768;48.884;2.258;2023-12-29T04:28:24;12.20;99.90
41058;DHT22;66768;48.884;2.258;2023-12-29T04:30:51;12.20;99.90
41058;DHT22;66768;48.884;2.258;2023-12-29T04:33:18;12.20;99.90
41058;DHT22;66768;48.884;2.258;2023-12-29T04:35:45;12.30;99.90
41058;DHT22;66768;48.884;2.258;2023-12-29T04:38:11;12.20;99.90
41058;DHT22;66768;48.884;2.258;2023-12-29T04:40:40;12.20;99.90
41058;DHT22;66768;48.884;2.258;2023-12-29T04:43:07;12.30;99.90
41058;DHT22;66768;48.884;2.258;2023-12-29T04:45:33;12.20;99.90
41058;DHT22;66768;48.884;2.258;2023-12-29T04:48:00;12.30;99.90
41058;DHT22;66768;48.884;2.258;2023-12-29T04:50:27;12.30;99.90
41058;DHT22;66768;48.884;2.258;2023-12-29T04:52:54;12.30;99.90
41058;DHT22;66768;48.884;2.258;2023-12-29T04:55:21;12.20;99.90
41058;DHT22;66768;48.884;2.258;2023-12-29T04:57:49;12.30;99.90
41058;DHT22;66768;48.884;2.258;2023-12-29T05:00:16;12.30;99.90
41058;DHT22;66768;48.884;2.258;2023-12-29T05:02:43;12.30;99.90
41058;DHT22;66768;48.884;2.258;2023-12-29T05:05:10;12.30;99.90
41058;DHT22;66768;48.884;2.258;2023-12-29T05:07:36;12.30;99.90
41058;DHT22;66768;48.884;2.258;2023-12-29T05:10:04;12.30;99.90
41058;DHT22;66768;48.884;2.258;2023-12-29T05:12:31;12.30;99.90
41058;DHT22;66768;48.884;2.258;2023-12-29T05:14:59;12.30;99.90
41058;DHT22;66768;48.884;2.258;2023-12-29T05:17:26;12.30;99.90
41058;DHT22;66768;48.884;2.258;2023-12-29T05:19:52;12.30;99.90
41058;DHT22;66768;48.884;2.258;2023-12-29T05:22:19;12.30;99.90
41058;DHT22;66768;48.884;2.258;2023-12-29T05:24:46;12.30;99.90
41058;DHT22;66768;48.884;2.258;2023-12-29T05:27:13;12.30;99.90
41058;DHT22;66768;48.884;2.258;2023-12-29T05:29:40;12.30;99.90
41058;DHT22;66768;48.884;2.258;2023-12-29T05:32:09;12.30;99.90
41058;DHT22;66768;48.884;2.258;2023-12-29T05:34:35;12.30;99.90
41058;DHT22;66768;48.884;2.258;2023-12-29T05:37:01;12.30;99.90
41058;DHT22;66768;48.884;2.258;2023-12-29T05:39:28;12.30;99.90
41058;DHT22;66768;48.884;2.258;2023-12-29T05:41:55;12.30;99.90
41058;DHT22;66768;48.884;2.258;2023-12-29T05:44:22;12.30;99.90
41058;DHT22;66768;48.884;2.258;2023-12-29T05:46:49;12.30;99.90
41058;DHT22;66768;48.884;2.258;2023-12-29T05:49:17;12.30;99.90
41058;DHT22;66768;48.884;2.258;2023-12-29T05:51:44;12.30;99.90
41058;DHT22;66768;48.884;2.258;2023-12-29T05:54:11;12.30;99.90
41058;DHT22;66768;48.884;2.258;2023-12-29T05:56:38;12.30;99.90
41058;DHT22;66768;48.884;2.258;2023-12-29T05:59:05;12.30;99.90
41058;DHT22;66768;48.884;2.258;2023-12-29T06:01:32;12.30;99.90
41058;DHT22;66768;48.884;2.258;2023-12-29T06:03:59;12.30;99.90
41058;DHT22;66768;48.884;2.258;2023-12-29T06:06:27;12.30;99.90
41058;DHT22;66768;48.884;2.258;2023-12-29T06:08:54;12.30;99.90
41058;DHT22;66768;48.884;2.258;2023-12-29T06:11:21;12.30;99.90
41058;DHT22;66768;48.884;2.258;2023-12-29T06:13:48;12.30;99.90
41058;DHT22;66768;48.884;2.258;2023-12-29T06:16:18;12.30;99.90
41058;DHT22;66768;48.884;2.258;2023-12-29T06:18:46;12.40;99.90
41058;DHT22;66768;48.884;2.258;2023-12-29T06:21:13;12.40;99.90
41058;DHT22;66768;48.884;2.258;2023-12-29T06:23:41;12.30;99.90
41058;DHT22;66768;48.884;2.258;2023-12-29T06:26:14;12.40;99.90
41058;DHT22;66768;48.884;2.258;2023-12-29T06:28:42;12.30;99.90
41058;DHT22;66768;48.884;2.258;2023-12-29T06:31:09;12.40;99.90
41058;DHT22;66768;48.884;2.258;2023-12-29T06:33:35;12.40;99.90
41058;DHT22;66768;48.884;2.258;2023-12-29T06:36:03;12.40;99.90
41058;DHT22;66768;48.884;2.258;2023-12-29T06:38:29;12.40;99.90
41058;DHT22;66768;48.884;2.258;2023-12-29T06:41:01;12.40;99.90
41058;DHT22;66768;48.884;2.258;2023-12-29T06:43:28;12.40;99.90
41058;DHT22;66768;48.884;2.258;2023-12-29T06:45:55;12.40;99.90
41058;DHT22;66768;48.884;2.258;2023-12-29T06:48:22;12.40;99.90
41058;DHT22;66768;48.884;2.258;2023-12-29T06:50:49;12.40;99.90
41058;DHT22;66768;48.884;2.258;2023-12-29T06:53:16;12.40;99.90
41058;DHT22;66768;48.884;2.258;2023-12-29T06:55:42;12.40;99.90
41058;DHT22;66768;48.884;2.258;2023-12-29T06:58:10;12.40;99.90
41058;DHT22;66768;48.884;2.258;2023-12-29T07:00:37;12.40;99.90
41058;DHT22;66768;48.884;2.258;2023-12-29T07:03:04;12.50;99.90
41058;DHT22;66768;48.884;2.258;2023-12-29T07:05:31;12.50;99.90
41058;DHT22;66768;48.884;2.258;2023-12-29T07:07:58;12.40;99.90
41058;DHT22;66768;48.884;2.258;2023-12-29T07:10:25;12.40;99.90
41058;DHT22;66768;48.884;2.258;2023-12-29T07:12:51;12.40;99.90
41058;DHT22;66768;48.884;2.258;2023-12-29T07:15:20;12.40;99.90
41058;DHT22;66768;48.884;2.258;2023-12-29T07:17:48;12.40;99.90
41058;DHT22;66768;48.884;2.258;2023-12-29T07:20:15;12.40;99.90
41058;DHT22;66768;48.884;2.258;2023-12-29T07:22:42;12.40;99.90
41058;DHT22;66768;48.884;2.258;2023-12-29T07:25:09;12.40;99.90
41058;DHT22;66768;48.884;2.258;2023-12-29T07:27:37;12.30;99.90
41058;DHT22;66768;48.884;2.258;2023-12-29T07:30:04;12.40;99.90
41058;DHT22;66768;48.884;2.258;2023-12-29T07:32:32;12.40;99.90
41058;DHT22;66768;48.884;2.258;2023-12-29T07:34:59;12.40;99.90
41058;DHT22;66768;48.884;2.258;2023-12-29T07:37:26;12.30;99.90
41058;DHT22;66768;48.884;2.258;2023-12-29T07:39:53;12.30;99.90
41058;DHT22;66768;48.884;2.258;2023-12-29T07:42:19;12.30;99.90
41058;DHT22;66768;48.884;2.258;2023-12-29T07:44:46;12.30;99.90
41058;DHT22;66768;48.884;2.258;2023-12-29T07:47:13;12.30;99.90
41058;DHT22;66768;48.884;2.258;2023-12-29T07:49:42;12.30;99.90
41058;DHT22;66768;48.884;2.258;2023-12-29T07:52:09;12.20;99.90
41058;DHT22;66768;48.884;2.258;2023-12-29T07:54:36;12.30;99.90
41058;DHT22;66768;48.884;2.258;2023-12-29T07:57:02;12.20;99.90
41058;DHT22;66768;48.884;2.258;2023-12-29T07:59:29;12.20;99.90
41058;DHT22;66768;48.884;2.258;2023-12-29T08:01:56;12.20;99.90
41058;DHT22;66768;48.884;2.258;2023-12-29T08:04:24;12.20;99.90
41058;DHT22;66768;48.884;2.258;2023-12-29T08:06:52;12.20;99.90
41058;DHT22;66768;48.884;2.258;2023-12-29T08:09:19;12.20;99.90
41058;DHT22;66768;48.884;2.258;2023-12-29T08:11:46;12.20;99.90
41058;DHT22;66768;48.884;2.258;2023-12-29T08:14:13;12.20;99.90
41058;DHT22;66768;48.884;2.258;2023-12-29T08:16:40;12.20;99.90
41058;DHT22;66768;48.884;2.258;2023-12-29T08:19:07;12.20;99.90
41058;DHT22;66768;48.884;2.258;2023-12-29T08:21:35;12.20;99.90
41058;DHT22;66768;48.884;2.258;2023-12-29T08:24:04;12.20;99.90
41058;DHT22;66768;48.884;2.258;2023-12-29T08:26:31;12.20;99.90
41058;DHT22;66768;48.884;2.258;2023-12-29T08:28:58;12.20;99.90
41058;DHT22;66768;48.884;2.258;2023-12-29T08:31:25;12.20;99.90
41058;DHT22;66768;48.884;2.258;2023-12-29T08:33:52;12.30;99.90
41058;DHT22;66768;48.884;2.258;2023-12-29T08:36:20;12.20;99.90
41058;DHT22;66768;48.884;2.258;2023-12-29T08:38:47;12.20;99.90
41058;DHT22;66768;48.884;2.258;2023-12-29T08:41:16;12.20;99.90
41058;DHT22;66768;48.884;2.258;2023-12-29T08:43:43;12.20;99.90
41058;DHT22;66768;48.884;2.258;2023-12-29T08:46:11;12.30;99.90
41058;DHT22;66768;48.884;2.258;2023-12-29T08:48:37;12.20;99.90
41058;DHT22;66768;48.884;2.258;2023-12-29T08:51:04;12.20;99.90
41058;DHT22;66768;48.884;2.258;2023-12-29T08:53:32;12.20;99.90
41058;DHT22;66768;48.884;2.258;2023-12-29T08:56:01;12.20;99.90
41058;DHT22;66768;48.884;2.258;2023-12-29T08:58:29;12.30;99.90
41058;DHT22;66768;48.884;2.258;2023-12-29T09:00:56;12.30;99.90
41058;DHT22;66768;48.884;2.258;2023-12-29T09:03:23;12.30;99.90
41058;DHT22;66768;48.884;2.258;2023-12-29T09:05:50;12.30;99.90
41058;DHT22;66768;48.884;2.258;2023-12-29T09:08:17;12.30;99.90
41058;DHT22;66768;48.884;2.258;2023-12-29T09:10:44;12.30;99.90
41058;DHT22;66768;48.884;2.258;2023-12-29T09:13:11;12.40;99.90
41058;DHT22;66768;48.884;2.258;2023-12-29T09:15:39;12.40;99.90
41058;DHT22;66768;48.884;2.258;2023-12-29T09:18:06;12.50;99.90
41058;DHT22;66768;48.884;2.258;2023-12-29T09:20:33;12.50;99.90
41058;DHT22;66768;48.884;2.258;2023-12-29T09:23:00;12.50;99.90
41058;DHT22;66768;48.884;2.258;2023-12-29T09:25:29;12.60;99.90
41058;DHT22;66768;48.884;2.258;2023-12-29T09:27:55;12.60;99.90
41058;DHT22;66768;48.884;2.258;2023-12-29T09:30:22;12.60;99.90
41058;DHT22;66768;48.884;2.258;2023-12-29T09:32:50;12.60;99.90
41058;DHT22;66768;48.884;2.258;2023-12-29T09:35:17;12.60;99.90
41058;DHT22;66768;48.884;2.258;2023-12-29T09:37:46;12.60;99.90
41058;DHT22;66768;48.884;2.258;2023-12-29T09:40:14;12.60;99.90
41058;DHT22;66768;48.884;2.258;2023-12-29T09:42:43;12.60;99.90
41058;DHT22;66768;48.884;2.258;2023-12-29T09:45:11;12.60;99.90
41058;DHT22;66768;48.884;2.258;2023-12-29T09:47:39;12.70;99.90
41058;DHT22;66768;48.884;2.258;2023-12-29T09:50:11;12.70;99.90
41058;DHT22;66768;48.884;2.258;2023-12-29T09:52:39;12.80;99.90
41058;DHT22;66768;48.884;2.258;2023-12-29T09:55:08;12.80;99.90
41058;DHT22;66768;48.884;2.258;2023-12-29T09:57:36;12.80;99.90
41058;DHT22;66768;48.884;2.258;2023-12-29T10:00:04;12.90;99.90
41058;DHT22;66768;48.884;2.258;2023-12-29T10:02:32;12.90;99.90
41058;DHT22;66768;48.884;2.258;2023-12-29T10:05:01;13.00;99.90
41058;DHT22;66768;48.884;2.258;2023-12-29T10:07:33;13.00;99.90
41058;DHT22;66768;48.884;2.258;2023-12-29T10:10:02;13.10;99.90
41058;DHT22;66768;48.884;2.258;2023-12-29T10:12:31;13.10;99.90
41058;DHT22;66768;48.884;2.258;2023-12-29T10:15:04;13.10;99.90
41058;DHT22;66768;48.884;2.258;2023-12-29T10:17:40;13.10;99.90
41058;DHT22;66768;48.884;2.258;2023-12-29T10:20:15;13.00;99.90
41058;DHT22;66768;48.884;2.258;2023-12-29T10:22:50;13.00;99.90
41058;DHT22;66768;48.884;2.258;2023-12-29T10:25:18;13.10;99.90
41058;DHT22;66768;48.884;2.258;2023-12-29T10:27:45;13.10;99.90
41058;DHT22;66768;48.884;2.258;2023-12-29T10:30:12;13.10;99.90
41058;DHT22;66768;48.884;2.258;2023-12-29T10:32:39;13.20;99.90
41058;DHT22;66768;48.884;2.258;2023-12-29T10:35:09;13.20;99.90
41058;DHT22;66768;48.884;2.258;2023-12-29T10:37:37;13.30;99.90
41058;DHT22;66768;48.884;2.258;2023-12-29T10:40:07;13.20;99.90
41058;DHT22;66768;48.884;2.258;2023-12-29T10:42:34;13.30;99.90
41058;DHT22;66768;48.884;2.258;2023-12-29T10:45:05;13.20;99.90
41058;DHT22;66768;48.884;2.258;2023-12-29T10:47:33;13.30;99.90
41058;DHT22;66768;48.884;2.258;2023-12-29T10:50:01;13.20;99.90
41058;DHT22;66768;48.884;2.258;2023-12-29T10:52:30;13.20;99.90
41058;DHT22;66768;48.884;2.258;2023-12-29T10:55:07;13.30;99.90
41058;DHT22;66768;48.884;2.258;2023-12-29T10:57:35;13.30;99.90
41058;DHT22;66768;48.884;2.258;2023-12-29T11:00:02;13.30;99.90
41058;DHT22;66768;48.884;2.258;2023-12-29T11:02:31;13.30;99.90
41058;DHT22;66768;48.884;2.258;2023-12-29T11:05:03;13.30;99.90
41058;DHT22;66768;48.884;2.258;2023-12-29T11:07:37;13.30;99.90
41058;DHT22;66768;48.884;2.258;2023-12-29T11:10:07;13.30;99.90
41058;DHT22;66768;48.884;2.258;2023-12-29T11:12:35;13.30;99.90
41058;DHT22;66768;48.884;2.258;2023-12-29T11:15:04;13.30;99.90
41058;DHT22;66768;48.884;2.258;2023-12-29T11:17:34;13.30;99.90
41058;DHT22;66768;48.884;2.258;2023-12-29T11:20:03;13.30;99.90
41058;DHT22;66768;48.884;2.258;2023-12-29T11:22:31;13.30;99.90
41058;DHT22;66768;48.884;2.258;2023-12-29T11:24:59;13.30;99.90
41058;DHT22;66768;48.884;2.258;2023-12-29T11:27:31;13.30;99.90
41058;DHT22;66768;48.884;2.258;2023-12-29T11:29:59;13.40;99.90
41058;DHT22;66768;48.884;2.258;2023-12-29T11:32:32;13.40;99.90
41058;DHT22;66768;48.884;2.258;2023-12-29T11:35:13;13.40;99.90
41058;DHT22;66768;48.884;2.258;2023-12-29T11:37:59;13.40;99.90
41058;DHT22;66768;48.884;2.258;2023-12-29T11:40:32;13.30;99.90
41058;DHT22;66768;48.884;2.258;2023-12-29T11:43:08;13.30;99.90
41058;DHT22;66768;48.884;2.258;2023-12-29T11:45:38;13.40;99.90
41058;DHT22;66768;48.884;2.258;2023-12-29T11:48:06;13.50;99.90
41058;DHT22;66768;48.884;2.258;2023-12-29T11:50:34;13.50;99.90
41058;DHT22;66768;48.884;2.258;2023-12-29T11:53:02;13.50;99.90
41058;DHT22;66768;48.884;2.258;2023-12-29T11:55:30;13.50;99.90
41058;DHT22;66768;48.884;2.258;2023-12-29T11:57:57;13.50;99.90
41058;DHT22;66768;48.884;2.258;2023-12-29T12:00:44;13.50;99.90
41058;DHT22;66768;48.884;2.258;2023-12-29T12:03:23;13.50;99.90
41058;DHT22;66768;48.884;2.258;2023-12-29T12:05:51;13.50;99.90
41058;DHT22;66768;48.884;2.258;2023-12-29T12:08:30;13.50;99.90
41058;DHT22;66768;48.884;2.258;2023-12-29T12:14:03;13.50;99.90
41058;DHT22;66768;48.884;2.258;2023-12-29T12:16:50;13.60;99.90
41058;DHT22;66768;48.884;2.258;2023-12-29T12:19:20;13.60;99.90
41058;DHT22;66768;48.884;2.258;2023-12-29T12:21:50;13.60;99.90
41058;DHT22;66768;48.884;2.258;2023-12-29T12:24:19;13.60;99.90
41058;DHT22;66768;48.884;2.258;2023-12-29T12:26:46;13.50;99.90
41058;DHT22;66768;48.884;2.258;2023-12-29T12:29:14;13.60;99.90
41058;DHT22;66768;48.884;2.258;2023-12-29T12:31:55;13.60;99.90
41058;DHT22;66768;48.884;2.258;2023-12-29T12:34:22;13.70;99.90
41058;DHT22;66768;48.884;2.258;2023-12-29T12:36:49;13.60;99.90
41058;DHT22;66768;48.884;2.258;2023-12-29T12:39:16;13.60;99.90
41058;DHT22;66768;48.884;2.258;2023-12-29T12:41:44;13.60;99.90
41058;DHT22;66768;48.884;2.258;2023-12-29T12:44:11;13.50;99.90
41058;DHT22;66768;48.884;2.258;2023-12-29T12:46:41;13.60;99.90
41058;DHT22;66768;48.884;2.258;2023-12-29T12:49:12;13.60;99.90
41058;DHT22;66768;48.884;2.258;2023-12-29T12:51:39;13.60;99.90
41058;DHT22;66768;48.884;2.258;2023-12-29T12:54:06;13.60;99.90
41058;DHT22;66768;48.884;2.258;2023-12-29T12:56:34;13.60;99.90
41058;DHT22;66768;48.884;2.258;2023-12-29T12:59:02;13.80;99.90
41058;DHT22;66768;48.884;2.258;2023-12-29T13:01:29;13.80;99.90
41058;DHT22;66768;48.884;2.258;2023-12-29T13:04:01;13.80;99.90
41058;DHT22;66768;48.884;2.258;2023-12-29T13:06:31;13.70;99.90
41058;DHT22;66768;48.884;2.258;2023-12-29T13:08:59;13.70;99.90
41058;DHT22;66768;48.884;2.258;2023-12-29T13:11:26;13.70;99.90
41058;DHT22;66768;48.884;2.258;2023-12-29T13:13:53;13.70;99.90
41058;DHT22;66768;48.884;2.258;2023-12-29T13:16:29;13.70;99.90
41058;DHT22;66768;48.884;2.258;2023-12-29T13:18:56;13.60;99.90
41058;DHT22;66768;48.884;2.258;2023-12-29T13:21:23;13.60;99.90
41058;DHT22;66768;48.884;2.258;2023-12-29T13:23:52;13.60;99.90
41058;DHT22;66768;48.884;2.258;2023-12-29T13:26:22;13.60;99.90
41058;DHT22;66768;48.884;2.258;2023-12-29T13:28:50;13.60;99.90
41058;DHT22;66768;48.884;2.258;2023-12-29T13:31:17;13.60;99.90
41058;DHT22;66768;48.884;2.258;2023-12-29T13:33:51;13.60;99.90
41058;DHT22;66768;48.884;2.258;2023-12-29T13:36:28;13.50;99.90
41058;DHT22;66768;48.884;2.258;2023-12-29T13:39:11;13.50;99.90
41058;DHT22;66768;48.884;2.258;2023-12-29T13:41:41;13.50;99.90
41058;DHT22;66768;48.884;2.258;2023-12-29T13:44:08;13.50;99.90
41058;DHT22;66768;48.884;2.258;2023-12-29T13:46:36;13.50;99.90
41058;DHT22;66768;48.884;2.258;2023-12-29T13:49:04;13.40;99.90
41058;DHT22;66768;48.884;2.258;2023-12-29T13:51:32;13.40;99.90
41058;DHT22;66768;48.884;2.258;2023-12-29T13:54:01;13.40;99.90
41058;DHT22;66768;48.884;2.258;2023-12-29T13:56:28;13.30;99.90
41058;DHT22;66768;48.884;2.258;2023-12-29T13:58:55;13.40;99.90
41058;DHT22;66768;48.884;2.258;2023-12-29T14:01:22;13.40;99.90
41058;DHT22;66768;48.884;2.258;2023-12-29T14:03:51;13.40;99.90
41058;DHT22;66768;48.884;2.258;2023-12-29T14:06:29;13.50;99.90
41058;DHT22;66768;48.884;2.258;2023-12-29T14:08:58;13.40;99.90
41058;DHT22;66768;48.884;2.258;2023-12-29T14:11:26;13.50;99.90
41058;DHT22;66768;48.884;2.258;2023-12-29T14:13:53;13.40;99.90
41058;DHT22;66768;48.884;2.258;2023-12-29T14:16:20;13.40;99.90
41058;DHT22;66768;48.884;2.258;2023-12-29T14:18:54;13.40;99.90
41058;DHT22;66768;48.884;2.258;2023-12-29T14:21:27;13.50;99.90
41058;DHT22;66768;48.884;2.258;2023-12-29T14:24:02;13.40;99.90
41058;DHT22;66768;48.884;2.258;2023-12-29T14:26:30;13.40;99.90
41058;DHT22;66768;48.884;2.258;2023-12-29T14:29:05;13.40;99.90
41058;DHT22;66768;48.884;2.258;2023-12-29T14:31:34;13.50;99.90
41058;DHT22;66768;48.884;2.258;2023-12-29T14:34:02;13.50;99.90
41058;DHT22;66768;48.884;2.258;2023-12-29T14:36:29;13.50;99.90
41058;DHT22;66768;48.884;2.258;2023-12-29T14:38:56;13.50;99.90
41058;DHT22;66768;48.884;2.258;2023-12-29T14:41:23;13.40;99.90
41058;DHT22;66768;48.884;2.258;2023-12-29T14:43:52;13.50;99.90
41058;DHT22;66768;48.884;2.258;2023-12-29T14:46:19;13.50;99.90
41058;DHT22;66768;48.884;2.258;2023-12-29T14:48:46;13.50;99.90
41058;DHT22;66768;48.884;2.258;2023-12-29T14:51:13;13.50;99.90
41058;DHT22;66768;48.884;2.258;2023-12-29T14:53:43;13.50;99.90
41058;DHT22;66768;48.884;2.258;2023-12-29T14:56:10;13.50;99.90
41058;DHT22;66768;48.884;2.258;2023-12-29T14:58:38;13.60;99.90
41058;DHT22;66768;48.884;2.258;2023-12-29T15:01:06;13.50;99.90
41058;DHT22;66768;48.884;2.258;2023-12-29T15:03:34;13.60;99.90
41058;DHT22;66768;48.884;2.258;2023-12-29T15:06:01;13.60;99.90
41058;DHT22;66768;48.884;2.258;2023-12-29T15:08:29;13.60;99.90
41058;DHT22;66768;48.884;2.258;2023-12-29T15:11:00;13.50;99.90
41058;DHT22;66768;48.884;2.258;2023-12-29T15:13:27;13.50;99.90
41058;DHT22;66768;48.884;2.258;2023-12-29T15:15:56;13.50;99.90
41058;DHT22;66768;48.884;2.258;2023-12-29T15:18:24;13.50;99.90
41058;DHT22;66768;48.884;2.258;2023-12-29T15:20:51;13.50;99.90
41058;DHT22;66768;48.884;2.258;2023-12-29T15:23:18;13.50;99.90
41058;DHT22;66768;48.884;2.258;2023-12-29T15:25:45;13.50;99.90
41058;DHT22;66768;48.884;2.258;2023-12-29T15:28:12;13.40;99.90
41058;DHT22;66768;48.884;2.258;2023-12-29T15:30:39;13.40;99.90
41058;DHT22;66768;48.884;2.258;2023-12-29T15:33:06;13.30;99.90
41058;DHT22;66768;48.884;2.258;2023-12-29T15:35:34;13.40;99.90
41058;DHT22;66768;48.884;2.258;2023-12-29T15:38:01;13.30;99.90